createdAt,value
2017-08-14T00:01:06.252Z,23
2017-08-14T00:02:16.173Z,23.01
2017-08-14T00:03:26.100Z,23.02
2017-08-14T00:04:36.046Z,23.04
2017-08-14T00:05:45.967Z,23.02
2017-08-14T00:06:55.887Z,23.01
2017-08-14T00:08:05.216Z,23.04
2017-08-14T00:09:14.830Z,23.02
2017-08-14T00:10:24.750Z,23.02
2017-08-14T00:11:34.685Z,23.02
2017-08-14T00:12:44.622Z,23.05
2017-08-14T00:13:54.859Z,23
2017-08-14T00:15:04.483Z,23.05
2017-08-14T00:16:14.110Z,23
2017-08-14T00:17:23.735Z,23.01
2017-08-14T00:18:33.360Z,23.02
2017-08-14T00:19:43.586Z,23
2017-08-14T00:20:53.530Z,23.01
2017-08-14T00:22:03.210Z,23.04
2017-08-14T00:23:13.476Z,23.05
2017-08-14T00:24:22.791Z,23.01
2017-08-14T00:25:33.030Z,23
2017-08-14T00:26:42.956Z,22.97
2017-08-14T00:27:53.205Z,23
2017-08-14T00:29:03.477Z,23.01
2017-08-14T00:30:13.409Z,23.02
2017-08-14T00:31:23.651Z,22.9
2017-08-14T00:32:33.600Z,22.94
2017-08-14T00:33:43.528Z,22.88
2017-08-14T00:34:53.751Z,22.83
2017-08-14T00:36:03.397Z,22.85
2017-08-14T00:37:13.353Z,22.83
2017-08-14T00:38:23.287Z,22.79
2017-08-14T00:39:32.901Z,22.73
2017-08-14T00:40:43.580Z,22.75
2017-08-14T00:41:53.502Z,22.67
2017-08-14T00:43:03.443Z,22.61
2017-08-14T00:44:13.403Z,22.55
2017-08-14T00:45:23.362Z,22.65
2017-08-14T00:46:33.615Z,22.61
2017-08-14T00:47:43.229Z,22.62
2017-08-14T00:48:52.845Z,22.61
2017-08-14T00:50:03.101Z,22.42
2017-08-14T00:51:24.886Z,22.43
2017-08-14T00:52:34.827Z,22.45
2017-08-14T00:53:44.749Z,22.36
2017-08-14T00:54:54.660Z,22.43
2017-08-14T00:56:04.890Z,22.45
2017-08-14T00:57:14.830Z,22.37
2017-08-14T00:58:25.124Z,22.36
2017-08-14T00:59:35.039Z,22.4
2017-08-14T01:00:45.283Z,22.37
2017-08-14T01:01:55.533Z,22.4
2017-08-14T01:03:05.773Z,22.37
2017-08-14T01:04:15.730Z,22.35
2017-08-14T01:05:25.350Z,22.35
2017-08-14T01:06:34.976Z,22.24
2017-08-14T01:07:45.208Z,22.31
2017-08-14T01:08:55.355Z,22.3
2017-08-14T01:10:05.416Z,22.33
2017-08-14T01:11:15.031Z,22.28
2017-08-14T01:12:24.950Z,22.25
2017-08-14T01:13:35.175Z,22.27
2017-08-14T01:14:45.099Z,22.3
2017-08-14T01:15:55.012Z,22.33
2017-08-14T01:17:04.943Z,22.31
2017-08-14T01:18:15.163Z,22.31
2017-08-14T01:19:25.386Z,22.3
2017-08-14T01:20:35.611Z,22.28
2017-08-14T01:21:45.582Z,22.35
2017-08-14T01:22:55.829Z,22.3
2017-08-14T01:24:05.769Z,22.33
2017-08-14T01:25:16.004Z,22.25
2017-08-14T01:26:25.930Z,22.24
2017-08-14T01:27:35.567Z,22.27
2017-08-14T01:28:44.878Z,22.3
2017-08-14T01:29:54.796Z,22.27
2017-08-14T01:31:05.031Z,22.31
2017-08-14T01:32:14.945Z,22.37
2017-08-14T01:33:25.026Z,22.33
2017-08-14T01:34:34.951Z,22.33
2017-08-14T01:35:45.168Z,22.39
2017-08-14T01:36:55.106Z,22.35
2017-08-14T01:38:05.031Z,22.37
2017-08-14T01:39:15.413Z,22.39
2017-08-14T01:40:25.026Z,22.4
2017-08-14T01:41:34.623Z,22.33
2017-08-14T01:42:44.248Z,22.47
2017-08-14T01:43:54.166Z,22.39
2017-08-14T01:45:04.470Z,22.37
2017-08-14T01:46:14.403Z,22.45
2017-08-14T01:47:23.712Z,22.37
2017-08-14T01:48:33.652Z,22.37
2017-08-14T01:49:43.887Z,22.37
2017-08-14T01:50:53.649Z,22.35
2017-08-14T01:52:03.571Z,22.36
2017-08-14T01:53:13.204Z,22.25
2017-08-14T01:54:23.440Z,22.21
2017-08-14T01:55:33.360Z,22.07
2017-08-14T01:56:43.429Z,22
2017-08-14T01:57:53.366Z,21.84
2017-08-14T01:59:03.592Z,21.88
2017-08-14T02:00:13.837Z,21.69
2017-08-14T02:01:23.457Z,21.65
2017-08-14T02:02:33.708Z,21.68
2017-08-14T02:03:43.636Z,21.75
2017-08-14T02:04:53.880Z,21.83
2017-08-14T02:06:03.809Z,21.72
2017-08-14T02:07:14.046Z,21.82
2017-08-14T02:08:24.123Z,21.74
2017-08-14T02:09:34.050Z,21.72
2017-08-14T02:10:43.686Z,21.64
2017-08-14T02:11:53.912Z,21.62
2017-08-14T02:13:03.844Z,21.67
2017-08-14T02:14:13.875Z,21.64
2017-08-14T02:15:23.506Z,21.65
2017-08-14T02:16:33.148Z,21.65
2017-08-14T02:17:43.372Z,21.59
2017-08-14T02:18:53.596Z,21.65
2017-08-14T02:20:03.200Z,21.65
2017-08-14T02:21:13.150Z,21.69
2017-08-14T02:22:23.077Z,21.65
2017-08-14T02:23:32.985Z,21.67
2017-08-14T02:24:43.230Z,21.65
2017-08-14T02:25:52.949Z,21.65
2017-08-14T02:27:03.171Z,21.67
2017-08-14T02:28:12.789Z,21.61
2017-08-14T02:29:22.394Z,21.52
2017-08-14T02:30:32.019Z,21.49
2017-08-14T02:31:41.438Z,21.35
2017-08-14T02:32:51.366Z,21.31
2017-08-14T02:34:01.578Z,21.24
2017-08-14T02:35:11.198Z,21.12
2017-08-14T02:36:21.126Z,21.03
2017-08-14T02:37:30.740Z,21.03
2017-08-14T02:38:40.954Z,20.92
2017-08-14T02:39:51.186Z,21.03
2017-08-14T02:41:01.443Z,20.92
2017-08-14T02:42:11.686Z,20.87
2017-08-14T02:43:22.077Z,20.8
2017-08-14T02:44:32.004Z,20.79
2017-08-14T02:45:42.251Z,20.79
2017-08-14T02:46:52.478Z,20.85
2017-08-14T02:48:02.397Z,20.73
2017-08-14T02:49:12.769Z,20.8
2017-08-14T02:50:22.679Z,20.91
2017-08-14T02:51:32.920Z,20.73
2017-08-14T02:52:42.557Z,20.79
2017-08-14T02:53:52.480Z,20.76
2017-08-14T02:55:02.101Z,20.85
2017-08-14T02:56:12.332Z,20.88
2017-08-14T02:57:21.630Z,20.87
2017-08-14T02:58:31.860Z,20.82
2017-08-14T02:59:41.791Z,20.95
2017-08-14T03:00:51.413Z,21.04
2017-08-14T03:02:01.364Z,21.14
2017-08-14T03:03:11.597Z,21.27
2017-08-14T03:04:21.831Z,21.24
2017-08-14T03:05:32.073Z,21.31
2017-08-14T03:06:42.145Z,21.38
2017-08-14T03:07:52.378Z,21.38
2017-08-14T03:09:02.606Z,21.52
2017-08-14T03:10:12.839Z,21.54
2017-08-14T03:11:22.157Z,21.59
2017-08-14T03:12:32.374Z,21.64
2017-08-14T03:13:41.991Z,21.64
2017-08-14T03:14:51.620Z,21.77
2017-08-14T03:16:01.561Z,21.79
2017-08-14T03:17:11.799Z,21.79
2017-08-14T03:18:22.331Z,21.84
2017-08-14T03:19:32.548Z,21.86
2017-08-14T03:20:42.771Z,21.98
2017-08-14T03:21:52.692Z,21.83
2017-08-14T03:23:02.619Z,21.98
2017-08-14T03:24:12.692Z,21.94
2017-08-14T03:25:22.849Z,21.91
2017-08-14T03:26:32.159Z,21.84
2017-08-14T03:27:41.774Z,21.91
2017-08-14T03:28:51.701Z,21.88
2017-08-14T03:30:01.772Z,21.92
2017-08-14T03:31:11.701Z,21.9
2017-08-14T03:32:21.620Z,21.83
2017-08-14T03:33:31.875Z,21.8
2017-08-14T03:34:41.803Z,21.8
2017-08-14T03:35:52.493Z,21.79
2017-08-14T03:37:02.427Z,21.92
2017-08-14T03:38:12.046Z,21.86
2017-08-14T03:39:21.394Z,21.84
2017-08-14T03:40:31.630Z,21.79
2017-08-14T03:41:41.850Z,21.77
2017-08-14T03:42:51.784Z,21.77
2017-08-14T03:44:01.090Z,21.68
2017-08-14T03:45:11.362Z,21.69
2017-08-14T03:46:21.284Z,21.59
2017-08-14T03:47:31.255Z,21.52
2017-08-14T03:48:41.230Z,21.42
2017-08-14T03:49:50.573Z,21.43
2017-08-14T03:51:00.505Z,21.35
2017-08-14T03:52:10.427Z,21.22
2017-08-14T03:53:20.797Z,21.13
2017-08-14T03:54:31.031Z,21.07
2017-08-14T03:55:40.655Z,20.97
2017-08-14T03:56:50.890Z,20.95
2017-08-14T03:58:00.826Z,20.92
2017-08-14T03:59:11.220Z,20.95
2017-08-14T04:00:21.152Z,20.92
2017-08-14T04:01:31.399Z,20.88
2017-08-14T04:02:41.030Z,20.85
2017-08-14T04:03:50.949Z,20.74
2017-08-14T04:05:01.331Z,20.77
2017-08-14T04:06:11.272Z,20.82
2017-08-14T04:07:21.207Z,20.79
2017-08-14T04:08:30.520Z,20.74
2017-08-14T04:09:40.749Z,20.82
2017-08-14T04:10:51.118Z,20.97
2017-08-14T04:12:00.421Z,21.06
2017-08-14T04:13:10.643Z,21.03
2017-08-14T04:14:20.567Z,21.13
2017-08-14T04:15:30.481Z,21.24
2017-08-14T04:16:40.873Z,21.22
2017-08-14T04:17:51.124Z,21.27
2017-08-14T04:19:01.041Z,21.35
2017-08-14T04:20:11.298Z,21.34
2017-08-14T04:21:21.521Z,21.35
2017-08-14T04:22:31.918Z,21.34
2017-08-14T04:23:41.848Z,21.24
2017-08-14T04:24:52.079Z,21.14
2017-08-14T04:26:02.008Z,21.13
2017-08-14T04:27:12.234Z,21.09
2017-08-14T04:28:22.163Z,21.03
2017-08-14T04:29:31.772Z,20.97
2017-08-14T04:30:41.710Z,20.99
2017-08-14T04:31:51.331Z,20.98
2017-08-14T04:33:01.569Z,20.92
2017-08-14T04:34:11.187Z,20.94
2017-08-14T04:35:21.128Z,20.94
2017-08-14T04:36:30.756Z,20.94
2017-08-14T04:37:40.371Z,21.01
2017-08-14T04:38:50.618Z,20.95
2017-08-14T04:40:00.996Z,21.06
2017-08-14T04:41:10.912Z,21.09
2017-08-14T04:42:21.142Z,21.17
2017-08-14T04:43:31.400Z,21.12
2017-08-14T04:44:41.042Z,21.22
2017-08-14T04:45:51.084Z,21.06
2017-08-14T04:47:01.036Z,21.1
2017-08-14T04:48:10.642Z,21.06
2017-08-14T04:49:20.250Z,20.98
2017-08-14T04:50:30.480Z,20.89
2017-08-14T04:51:40.553Z,20.91
2017-08-14T04:52:50.177Z,20.91
2017-08-14T04:54:00.412Z,20.8
2017-08-14T04:55:10.646Z,20.67
2017-08-14T04:56:20.893Z,20.7
2017-08-14T04:57:30.970Z,20.67
2017-08-14T04:58:41.207Z,20.67
2017-08-14T04:59:50.529Z,20.69
2017-08-14T05:01:00.453Z,20.69
2017-08-14T05:02:10.726Z,20.73
2017-08-14T05:03:20.748Z,20.77
2017-08-14T05:04:30.049Z,20.7
2017-08-14T05:05:39.959Z,20.58
2017-08-14T05:06:49.870Z,20.58
2017-08-14T05:07:59.793Z,20.41
2017-08-14T05:09:09.865Z,20.52
2017-08-14T05:10:19.480Z,20.48
2017-08-14T05:11:29.720Z,20.39
2017-08-14T05:12:39.640Z,20.5
2017-08-14T05:13:49.294Z,20.57
2017-08-14T05:14:59.368Z,20.55
2017-08-14T05:16:09.296Z,20.64
2017-08-14T05:17:18.609Z,20.72
2017-08-14T05:18:28.517Z,20.67
2017-08-14T05:19:38.749Z,20.82
2017-08-14T05:20:48.371Z,20.85
2017-08-14T05:21:58.324Z,20.77
2017-08-14T05:23:08.254Z,20.72
2017-08-14T05:24:18.492Z,20.76
2017-08-14T05:25:27.798Z,20.88
2017-08-14T05:26:37.727Z,20.89
2017-08-14T05:27:47.654Z,20.92
2017-08-14T05:28:57.272Z,21.04
2017-08-14T05:30:06.984Z,21.14
2017-08-14T05:31:16.609Z,21.35
2017-08-14T05:32:26.711Z,21.35
2017-08-14T05:33:36.969Z,21.47
2017-08-14T05:34:47.206Z,21.61
2017-08-14T05:35:56.195Z,21.71
2017-08-14T05:37:05.541Z,21.86
2017-08-14T05:38:15.563Z,21.92
2017-08-14T05:39:25.486Z,22.05
2017-08-14T05:40:34.795Z,21.79
2017-08-14T05:41:44.408Z,21.94
2017-08-14T05:42:54.332Z,21.86
2017-08-14T05:44:04.306Z,21.94
2017-08-14T05:45:14.535Z,21.98
2017-08-14T05:46:24.166Z,21.99
2017-08-14T05:47:34.396Z,22.02
2017-08-14T05:48:44.303Z,22.03
2017-08-14T05:49:54.698Z,21.94
2017-08-14T05:51:04.621Z,22.03
2017-08-14T05:52:14.855Z,21.96
2017-08-14T05:53:24.781Z,22.14
2017-08-14T05:54:34.105Z,22.21
2017-08-14T05:55:44.335Z,22.27
2017-08-14T05:56:54.606Z,22.42
2017-08-14T05:58:05.318Z,22.47
2017-08-14T05:59:15.774Z,22.64
2017-08-14T06:00:25.806Z,22.72
2017-08-14T06:01:35.285Z,22.83
2017-08-14T06:02:45.603Z,22.92
2017-08-14T06:03:55.962Z,23
2017-08-14T06:05:06.044Z,23.16
2017-08-14T06:06:16.388Z,23.22
2017-08-14T06:07:26.403Z,23.42
2017-08-14T06:08:37.050Z,23.48
2017-08-14T06:09:47.076Z,23.61
2017-08-14T06:10:58.180Z,23.68
2017-08-14T06:12:07.612Z,23.8
2017-08-14T06:13:17.916Z,23.88
2017-08-14T06:14:28.062Z,23.93
2017-08-14T06:15:37.980Z,24.05
2017-08-14T06:16:47.596Z,24.1
2017-08-14T06:17:57.622Z,24.27
2017-08-14T06:19:07.650Z,24.32
2017-08-14T06:20:17.289Z,24.3
2017-08-14T06:21:27.216Z,24.28
2017-08-14T06:22:37.145Z,24.27
2017-08-14T06:23:46.753Z,24.22
2017-08-14T06:24:56.987Z,24.16
2017-08-14T06:26:06.606Z,24.12
2017-08-14T06:27:16.553Z,24.08
2017-08-14T06:28:26.481Z,24.13
2017-08-14T06:29:36.395Z,24.1
2017-08-14T06:30:46.196Z,24.05
2017-08-14T06:31:56.132Z,24.08
2017-08-14T06:33:06.063Z,24.05
2017-08-14T06:34:15.975Z,24.06
2017-08-14T06:35:26.201Z,24.13
2017-08-14T06:36:36.127Z,24.12
2017-08-14T06:37:45.738Z,23.98
2017-08-14T06:38:55.984Z,23.97
2017-08-14T06:40:05.591Z,24.03
2017-08-14T06:41:15.550Z,24.03
2017-08-14T06:42:25.897Z,24
2017-08-14T06:43:35.497Z,24.03
2017-08-14T06:44:45.431Z,23.91
2017-08-14T06:45:55.046Z,23.98
2017-08-14T06:47:04.973Z,24
2017-08-14T06:48:14.742Z,23.9
2017-08-14T06:49:24.665Z,23.98
2017-08-14T06:50:34.588Z,23.88
2017-08-14T06:51:44.533Z,23.91
2017-08-14T06:52:54.797Z,23.95
2017-08-14T06:54:04.472Z,24.02
2017-08-14T06:55:14.104Z,23.98
2017-08-14T06:56:24.720Z,23.95
2017-08-14T06:57:35.737Z,24
2017-08-14T06:58:45.448Z,24.05
2017-08-14T06:59:55.065Z,23.93
2017-08-14T07:01:04.994Z,24.05
2017-08-14T07:02:14.914Z,24.08
2017-08-14T07:03:24.862Z,24.03
2017-08-14T07:04:34.821Z,24.05
2017-08-14T07:05:44.810Z,24.02
2017-08-14T07:06:54.748Z,24.05
2017-08-14T07:08:04.693Z,23.98
2017-08-14T07:09:14.936Z,23.91
2017-08-14T07:10:24.856Z,23.91
2017-08-14T07:11:34.211Z,23.85
2017-08-14T07:12:44.450Z,23.9
2017-08-14T07:13:54.688Z,23.83
2017-08-14T07:15:04.937Z,23.75
2017-08-14T07:16:14.933Z,23.66
2017-08-14T07:17:25.243Z,23.69
2017-08-14T07:18:35.482Z,23.6
2017-08-14T07:19:45.403Z,23.66
2017-08-14T07:20:55.023Z,23.72
2017-08-14T07:22:04.654Z,23.66
2017-08-14T07:23:14.716Z,23.76
2017-08-14T07:24:24.696Z,23.73
2017-08-14T07:25:34.611Z,23.8
2017-08-14T07:26:44.529Z,23.79
2017-08-14T07:27:54.754Z,23.85
2017-08-14T07:29:04.683Z,24.06
2017-08-14T07:30:14.609Z,24.53
2017-08-14T07:31:24.244Z,25.23
2017-08-14T07:32:34.185Z,25.85
2017-08-14T07:33:44.633Z,26.5
2017-08-14T07:34:54.584Z,27.09
2017-08-14T07:36:04.528Z,27.54
2017-08-14T07:37:14.169Z,27.87
2017-08-14T07:38:23.803Z,27.99
2017-08-14T07:39:33.416Z,27.88
2017-08-14T07:40:43.422Z,27.94
2017-08-14T07:41:53.384Z,28.27
2017-08-14T07:43:03.649Z,28.59
2017-08-14T07:44:13.614Z,28.83
2017-08-14T07:45:23.861Z,29.09
2017-08-14T07:46:33.846Z,29.3
2017-08-14T07:47:43.794Z,29.55
2017-08-14T07:48:53.094Z,29.63
2017-08-14T07:50:03.326Z,29.86
2017-08-14T07:51:12.935Z,30.04
2017-08-14T07:52:22.875Z,30.15
2017-08-14T07:53:32.786Z,30.26
2017-08-14T07:54:42.096Z,30.46
2017-08-14T07:55:51.708Z,30.47
2017-08-14T07:57:01.347Z,30.53
2017-08-14T07:58:11.658Z,30.57
2017-08-14T07:59:21.901Z,30.58
2017-08-14T08:00:31.823Z,30.57
2017-08-14T08:01:41.751Z,30.49
2017-08-14T08:02:51.368Z,30.51
2017-08-14T08:04:01.652Z,30.43
2017-08-14T08:05:11.598Z,30.39
2017-08-14T08:06:21.540Z,30.24
2017-08-14T08:07:31.784Z,30.2
2017-08-14T08:08:42.078Z,30.22
2017-08-14T08:09:52.174Z,29.97
2017-08-14T08:11:02.411Z,29.94
2017-08-14T08:12:12.337Z,29.87
2017-08-14T08:13:22.577Z,29.7
2017-08-14T08:14:32.505Z,29.68
2017-08-14T08:15:41.909Z,29.64
2017-08-14T08:16:51.543Z,29.6
2017-08-14T08:18:01.163Z,29.52
2017-08-14T08:19:11.084Z,29.41
2017-08-14T08:20:20.734Z,29.36
2017-08-14T08:21:31.316Z,29.31
2017-08-14T08:22:41.244Z,29.24
2017-08-14T08:23:50.859Z,29.28
2017-08-14T08:25:00.467Z,29.21
2017-08-14T08:26:10.388Z,29.21
2017-08-14T08:27:21.082Z,29.24
2017-08-14T08:28:30.695Z,29.15
2017-08-14T08:29:40.957Z,29.15
2017-08-14T08:30:51.200Z,29.18
2017-08-14T08:32:01.436Z,29.12
2017-08-14T08:33:11.206Z,29.24
2017-08-14T08:34:21.169Z,29.26
2017-08-14T08:35:31.100Z,29.37
2017-08-14T08:36:41.343Z,29.45
2017-08-14T08:37:51.297Z,29.55
2017-08-14T08:39:01.319Z,29.67
2017-08-14T08:40:11.566Z,29.68
2017-08-14T08:41:21.800Z,29.85
2017-08-14T08:42:31.428Z,29.94
2017-08-14T08:43:41.047Z,29.98
2017-08-14T08:44:51.476Z,29.95
2017-08-14T08:46:00.479Z,29.9
2017-08-14T08:47:09.821Z,29.71
2017-08-14T08:48:19.767Z,29.53
2017-08-14T08:49:29.684Z,29.21
2017-08-14T08:50:39.966Z,29.11
2017-08-14T08:51:50.244Z,28.77
2017-08-14T08:52:59.897Z,28.55
2017-08-14T08:54:09.219Z,28.33
2017-08-14T08:55:19.459Z,28.19
2017-08-14T08:56:29.111Z,28.02
2017-08-14T08:57:39.375Z,27.88
2017-08-14T08:58:49.346Z,27.78
2017-08-14T08:59:59.288Z,27.81
2017-08-14T09:01:08.916Z,27.59
2017-08-14T09:02:18.722Z,27.47
2017-08-14T09:03:28.038Z,27.36
2017-08-14T09:04:37.755Z,27.25
2017-08-14T09:05:47.982Z,27.27
2017-08-14T09:06:57.906Z,27.06
2017-08-14T09:08:08.221Z,26.92
2017-08-14T09:09:17.846Z,26.82
2017-08-14T09:10:27.164Z,26.85
2017-08-14T09:11:37.397Z,26.82
2017-08-14T09:12:47.329Z,26.65
2017-08-14T09:13:57.128Z,26.57
2017-08-14T09:15:06.767Z,26.47
2017-08-14T09:16:16.697Z,26.43
2017-08-14T09:17:26.956Z,26.33
2017-08-14T09:18:36.264Z,26.32
2017-08-14T09:19:45.619Z,26.2
2017-08-14T09:20:55.573Z,26.3
2017-08-14T09:22:04.901Z,26.09
2017-08-14T09:23:14.535Z,26.15
2017-08-14T09:24:24.172Z,26.02
2017-08-14T09:25:34.438Z,25.95
2017-08-14T09:26:44.391Z,25.91
2017-08-14T09:27:54.341Z,25.97
2017-08-14T09:29:04.623Z,25.9
2017-08-14T09:30:14.550Z,25.77
2017-08-14T09:31:24.543Z,25.76
2017-08-14T09:32:34.490Z,25.7
2017-08-14T09:33:44.030Z,25.69
2017-08-14T09:34:54.320Z,25.57
2017-08-14T09:36:04.589Z,25.62
2017-08-14T09:37:14.673Z,25.52
2017-08-14T09:38:24.623Z,25.55
2017-08-14T09:39:34.562Z,25.5
2017-08-14T09:40:44.486Z,25.45
2017-08-14T09:41:53.817Z,25.52
2017-08-14T09:43:04.098Z,25.47
2017-08-14T09:44:13.448Z,25.39
2017-08-14T09:45:23.697Z,25.33
2017-08-14T09:46:33.030Z,25.42
2017-08-14T09:47:43.274Z,25.33
2017-08-14T09:48:52.749Z,25.28
2017-08-14T09:50:02.720Z,25.27
2017-08-14T09:51:12.056Z,25.33
2017-08-14T09:52:22.348Z,25.28
2017-08-14T09:53:31.676Z,25.27
2017-08-14T09:54:41.367Z,25.21
2017-08-14T09:55:51.308Z,25.2
2017-08-14T09:57:01.270Z,25.24
2017-08-14T09:58:11.205Z,25.21
2017-08-14T09:59:20.576Z,25.3
2017-08-14T10:00:30.555Z,25.25
2017-08-14T10:01:40.824Z,25.23
2017-08-14T10:02:51.155Z,25.17
2017-08-14T10:04:01.428Z,25.18
2017-08-14T10:05:11.752Z,25.17
2017-08-14T10:06:21.578Z,25.1
2017-08-14T10:07:31.542Z,25.08
2017-08-14T10:08:41.778Z,25.1
2017-08-14T10:09:51.423Z,25.09
2017-08-14T10:11:01.510Z,25.08
2017-08-14T10:12:11.507Z,25.15
2017-08-14T10:13:21.826Z,25.1
2017-08-14T10:14:31.212Z,25.09
2017-08-14T10:15:41.515Z,25.09
2017-08-14T10:16:51.572Z,25.06
2017-08-14T10:18:01.241Z,25.13
2017-08-14T10:19:11.186Z,25.09
2017-08-14T10:20:20.859Z,25.1
2017-08-14T10:21:31.136Z,25.06
2017-08-14T10:22:41.125Z,25.03
2017-08-14T10:23:50.801Z,25.02
2017-08-14T10:25:00.424Z,25.1
2017-08-14T10:26:09.772Z,24.95
2017-08-14T10:27:19.711Z,25.06
2017-08-14T10:28:29.652Z,24.98
2017-08-14T10:29:39.959Z,24.96
2017-08-14T10:30:50.203Z,24.96
2017-08-14T10:31:59.849Z,25.03
2017-08-14T10:33:10.105Z,24.96
2017-08-14T10:34:20.034Z,24.99
2017-08-14T10:35:30.118Z,24.95
2017-08-14T10:36:40.373Z,24.88
2017-08-14T10:37:50.307Z,24.95
2017-08-14T10:39:00.556Z,24.95
2017-08-14T10:40:10.859Z,24.88
2017-08-14T10:41:20.929Z,24.84
2017-08-14T10:42:31.172Z,24.84
2017-08-14T10:43:40.796Z,24.81
2017-08-14T10:44:50.736Z,24.81
2017-08-14T10:46:00.683Z,24.81
2017-08-14T10:47:10.309Z,24.83
2017-08-14T10:48:19.930Z,24.91
2017-08-14T10:49:29.554Z,24.87
2017-08-14T10:50:39.477Z,24.84
2017-08-14T10:51:49.724Z,24.83
2017-08-14T10:53:00.261Z,24.81
2017-08-14T10:54:10.494Z,24.8
2017-08-14T10:55:20.433Z,24.83
2017-08-14T10:56:30.384Z,24.81
2017-08-14T10:57:40.304Z,24.87
2017-08-14T10:58:50.695Z,24.78
2017-08-14T11:00:00.311Z,24.71
2017-08-14T11:01:10.703Z,24.8
2017-08-14T11:02:20.975Z,24.85
2017-08-14T11:03:30.613Z,24.78
2017-08-14T11:04:40.784Z,24.87
2017-08-14T11:05:50.707Z,24.77
2017-08-14T11:07:00.943Z,24.78
2017-08-14T11:08:10.861Z,24.8
2017-08-14T11:09:20.494Z,24.81
2017-08-14T11:10:30.786Z,24.78
2017-08-14T11:11:40.705Z,24.71
2017-08-14T11:12:50.938Z,24.83
2017-08-14T11:14:01.194Z,24.76
2017-08-14T11:15:11.151Z,24.76
2017-08-14T11:16:20.886Z,24.78
2017-08-14T11:17:31.171Z,24.8
2017-08-14T11:18:41.121Z,24.76
2017-08-14T11:19:51.076Z,24.77
2017-08-14T11:21:01.345Z,24.77
2017-08-14T11:22:10.817Z,24.83
2017-08-14T11:23:20.451Z,24.69
2017-08-14T11:24:30.393Z,24.69
2017-08-14T11:25:40.380Z,24.78
2017-08-14T11:26:50.330Z,24.77
2017-08-14T11:28:00.741Z,24.78
2017-08-14T11:29:10.687Z,24.69
2017-08-14T11:30:20.339Z,24.69
2017-08-14T11:31:29.955Z,24.73
2017-08-14T11:32:39.278Z,24.69
2017-08-14T11:33:49.242Z,24.68
2017-08-14T11:34:58.863Z,24.76
2017-08-14T11:36:09.124Z,24.71
2017-08-14T11:37:18.759Z,24.71
2017-08-14T11:38:28.118Z,24.76
2017-08-14T11:39:38.505Z,24.76
2017-08-14T11:40:48.441Z,24.67
2017-08-14T11:41:58.682Z,24.76
2017-08-14T11:43:08.940Z,24.67
2017-08-14T11:44:19.177Z,24.76
2017-08-14T11:45:29.128Z,24.71
2017-08-14T11:46:39.078Z,24.76
2017-08-14T11:47:49.335Z,24.78
2017-08-14T11:48:58.658Z,24.76
2017-08-14T11:50:08.894Z,24.73
2017-08-14T11:51:18.862Z,24.73
2017-08-14T11:52:28.173Z,24.78
2017-08-14T11:53:38.509Z,24.78
2017-08-14T11:54:48.453Z,24.78
2017-08-14T11:55:58.399Z,24.76
2017-08-14T11:57:07.864Z,24.77
2017-08-14T11:58:18.143Z,24.71
2017-08-14T11:59:28.070Z,24.77
2017-08-14T12:00:37.383Z,24.8
2017-08-14T12:01:47.316Z,24.77
2017-08-14T12:02:57.405Z,24.69
2017-08-14T12:04:07.689Z,24.76
2017-08-14T12:05:17.975Z,24.77
2017-08-14T12:06:27.936Z,24.73
2017-08-14T12:07:37.561Z,24.69
2017-08-14T12:08:47.191Z,24.73
2017-08-14T12:09:57.570Z,24.76
2017-08-14T12:11:06.878Z,24.76
2017-08-14T12:12:16.196Z,24.69
2017-08-14T12:13:25.827Z,24.69
2017-08-14T12:14:35.344Z,24.71
2017-08-14T12:15:45.320Z,24.73
2017-08-14T12:16:55.272Z,24.78
2017-08-14T12:18:05.922Z,24.77
2017-08-14T12:19:16.174Z,24.77
2017-08-14T12:20:26.156Z,24.73
2017-08-14T12:21:36.096Z,24.77
2017-08-14T12:22:45.713Z,24.77
2017-08-14T12:23:55.358Z,24.78
2017-08-14T12:25:05.307Z,24.78
2017-08-14T12:26:15.548Z,24.76
2017-08-14T12:27:25.484Z,24.78
2017-08-14T12:28:35.098Z,24.76
2017-08-14T12:29:44.429Z,24.71
2017-08-14T12:30:54.358Z,24.84
2017-08-14T12:32:04.341Z,24.78
2017-08-14T12:33:13.042Z,24.84
2017-08-14T12:34:22.960Z,24.77
2017-08-14T12:35:32.576Z,24.78
2017-08-14T12:36:42.823Z,24.78
2017-08-14T12:37:52.664Z,24.73
2017-08-14T12:39:02.588Z,24.81
2017-08-14T12:40:12.821Z,24.88
2017-08-14T12:41:22.430Z,24.77
2017-08-14T12:42:32.046Z,24.81
2017-08-14T12:43:42.067Z,24.84
2017-08-14T12:44:51.996Z,24.77
2017-08-14T12:46:01.607Z,24.84
2017-08-14T12:47:11.536Z,24.81
2017-08-14T12:48:20.865Z,24.8
2017-08-14T12:49:30.606Z,24.84
2017-08-14T12:50:40.218Z,24.81
2017-08-14T12:51:49.871Z,24.76
2017-08-14T12:52:59.489Z,24.78
2017-08-14T12:54:09.409Z,24.78
2017-08-14T12:55:19.458Z,24.87
2017-08-14T12:56:28.784Z,24.81
2017-08-14T12:57:38.708Z,24.78
2017-08-14T12:58:48.666Z,24.8
2017-08-14T12:59:58.586Z,24.9
2017-08-14T13:01:08.628Z,24.81
2017-08-14T13:02:18.246Z,24.78
2017-08-14T13:03:28.157Z,24.84
2017-08-14T13:04:38.388Z,24.83
2017-08-14T13:05:48.612Z,24.81
2017-08-14T13:06:58.230Z,24.81
2017-08-14T13:08:07.245Z,24.81
2017-08-14T13:09:17.476Z,24.81
2017-08-14T13:10:27.403Z,24.8
2017-08-14T13:11:37.328Z,24.84
2017-08-14T13:12:47.096Z,24.81
2017-08-14T13:13:57.028Z,24.91
2017-08-14T13:15:07.280Z,24.85
2017-08-14T13:16:17.511Z,24.83
2017-08-14T13:17:27.729Z,24.91
2017-08-14T13:18:37.801Z,24.91
2017-08-14T13:19:47.719Z,24.93
2017-08-14T13:20:57.643Z,24.93
2017-08-14T13:22:07.253Z,24.95
2017-08-14T13:23:17.170Z,24.9
2017-08-14T13:24:27.248Z,24.96
2017-08-14T13:25:36.566Z,24.87
2017-08-14T13:26:46.812Z,24.96
2017-08-14T13:27:56.171Z,24.96
2017-08-14T13:29:06.470Z,24.95
2017-08-14T13:30:16.739Z,24.93
2017-08-14T13:31:26.685Z,24.99
2017-08-14T13:32:36.332Z,24.95
2017-08-14T13:33:46.322Z,24.9
2017-08-14T13:34:56.842Z,24.98
2017-08-14T13:36:06.804Z,24.93
2017-08-14T13:37:16.739Z,25
2017-08-14T13:38:26.376Z,24.91
2017-08-14T13:39:36.332Z,24.98
2017-08-14T13:40:46.315Z,24.96
2017-08-14T13:41:56.435Z,25.05
2017-08-14T13:43:06.089Z,25
2017-08-14T13:44:16.080Z,25
2017-08-14T13:45:26.069Z,24.93
2017-08-14T13:46:36.026Z,25
2017-08-14T13:47:45.945Z,24.96
2017-08-14T13:48:55.575Z,24.93
2017-08-14T13:50:05.206Z,25.03
2017-08-14T13:51:15.125Z,25.02
2017-08-14T13:52:25.051Z,25.03
2017-08-14T13:53:34.724Z,25
2017-08-14T13:54:44.030Z,24.98
2017-08-14T13:55:54.267Z,25.09
2017-08-14T13:57:04.196Z,24.99
2017-08-14T13:58:14.124Z,24.99
2017-08-14T13:59:23.601Z,24.98
2017-08-14T14:00:33.630Z,25.06
2017-08-14T14:01:43.569Z,25.03
2017-08-14T14:02:53.801Z,25.1
2017-08-14T14:04:03.738Z,25.03
2017-08-14T14:05:13.718Z,25.02
2017-08-14T14:06:23.646Z,25
2017-08-14T14:07:33.598Z,25.03
2017-08-14T14:08:43.842Z,25.09
2017-08-14T14:09:53.769Z,25.1
2017-08-14T14:11:03.525Z,25.08
2017-08-14T14:12:13.762Z,25.13
2017-08-14T14:13:23.691Z,25.09
2017-08-14T14:14:33.322Z,25.13
2017-08-14T14:15:43.250Z,25.06
2017-08-14T14:16:53.173Z,25.05
2017-08-14T14:18:03.099Z,25.13
2017-08-14T14:19:12.740Z,25.13
2017-08-14T14:20:22.358Z,25.09
2017-08-14T14:21:32.593Z,25.08
2017-08-14T14:22:42.568Z,25.06
2017-08-14T14:23:52.791Z,25.09
2017-08-14T14:25:02.412Z,25.08
2017-08-14T14:26:12.649Z,25.08
2017-08-14T14:27:22.890Z,25.13
2017-08-14T14:28:32.969Z,25.1
2017-08-14T14:29:42.913Z,25.09
2017-08-14T14:30:52.538Z,25.13
2017-08-14T14:32:02.774Z,25.1
2017-08-14T14:33:13.027Z,25.09
2017-08-14T14:34:23.102Z,25.08
2017-08-14T14:35:33.330Z,25.08
2017-08-14T14:36:43.261Z,25.1
2017-08-14T14:37:52.866Z,25.13
2017-08-14T14:39:02.780Z,25.09
2017-08-14T14:40:13.010Z,25.13
2017-08-14T14:41:22.754Z,25.1
2017-08-14T14:42:32.991Z,25.05
2017-08-14T14:43:42.634Z,25.13
2017-08-14T14:44:52.871Z,25.1
2017-08-14T14:46:02.492Z,25.09
2017-08-14T14:47:12.718Z,25.05
2017-08-14T14:48:22.636Z,25.13
2017-08-14T14:49:32.882Z,25.13
2017-08-14T14:50:43.113Z,25.09
2017-08-14T14:51:53.650Z,25.06
2017-08-14T14:53:03.893Z,25.09
2017-08-14T14:54:14.141Z,25.03
2017-08-14T14:55:24.379Z,25.09
2017-08-14T14:56:34.021Z,24.99
2017-08-14T14:57:44.316Z,25.06
2017-08-14T14:58:54.558Z,25.06
2017-08-14T15:00:04.177Z,25.06
2017-08-14T15:01:13.493Z,25.06
2017-08-14T15:02:23.167Z,25.09
2017-08-14T15:03:33.724Z,25.09
2017-08-14T15:04:43.963Z,25.05
2017-08-14T15:05:53.811Z,25.03